sensor_id;sensor_type;location;lat;lon;timestamp;P1;durP1;ratioP1;P2;durP2;ratioP2
55172;SDS011;41061;52.822;6.860;2023-04-10T00:01:10;68.13;;;42.90;;
55172;SDS011;41061;52.822;6.860;2023-04-10T00:03:36;71.95;;;44.42;;
55172;SDS011;41061;52.822;6.860;2023-04-10T00:06:01;63.58;;;40.92;;
55172;SDS011;41061;52.822;6.860;2023-04-10T00:08:27;66.60;;;41.00;;
55172;SDS011;41061;52.822;6.860;2023-04-10T00:10:53;64.63;;;42.58;;
55172;SDS011;41061;52.822;6.860;2023-04-10T00:13:18;65.32;;;41.25;;
55172;SDS011;41061;52.822;6.860;2023-04-10T00:15:45;69.32;;;41.65;;
55172;SDS011;41061;52.822;6.860;2023-04-10T00:18:10;67.40;;;40.92;;
55172;SDS011;41061;52.822;6.860;2023-04-10T00:20:36;69.28;;;41.28;;
55172;SDS011;41061;52.822;6.860;2023-04-10T00:23:02;65.80;;;41.63;;
55172;SDS011;41061;52.822;6.860;2023-04-10T00:25:28;70.68;;;42.75;;
55172;SDS011;41061;52.822;6.860;2023-04-10T00:27:53;67.80;;;42.03;;
55172;SDS011;41061;52.822;6.860;2023-04-10T00:30:19;69.90;;;42.97;;
55172;SDS011;41061;52.822;6.860;2023-04-10T00:32:46;63.15;;;41.58;;
55172;SDS011;41061;52.822;6.860;2023-04-10T00:35:11;67.82;;;43.67;;
55172;SDS011;41061;52.822;6.860;2023-04-10T00:37:37;68.18;;;43.17;;
55172;SDS011;41061;52.822;6.860;2023-04-10T00:40:03;70.88;;;45.38;;
55172;SDS011;41061;52.822;6.860;2023-04-10T00:42:30;68.78;;;42.83;;
55172;SDS011;41061;52.822;6.860;2023-04-10T00:44:57;69.03;;;44.03;;
55172;SDS011;41061;52.822;6.860;2023-04-10T00:47:23;72.40;;;45.78;;
55172;SDS011;41061;52.822;6.860;2023-04-10T00:49:50;69.53;;;44.55;;
55172;SDS011;41061;52.822;6.860;2023-04-10T00:52:16;70.32;;;43.60;;
55172;SDS011;41061;52.822;6.860;2023-04-10T00:54:42;69.53;;;44.72;;
55172;SDS011;41061;52.822;6.860;2023-04-10T00:57:07;72.45;;;45.95;;
55172;SDS011;41061;52.822;6.860;2023-04-10T00:59:34;75.20;;;47.15;;
55172;SDS011;41061;52.822;6.860;2023-04-10T01:01:59;69.57;;;44.85;;
55172;SDS011;41061;52.822;6.860;2023-04-10T01:04:25;74.28;;;46.13;;
55172;SDS011;41061;52.822;6.860;2023-04-10T01:07:41;70.15;;;44.63;;
55172;SDS011;41061;52.822;6.860;2023-04-10T01:09:51;71.65;;;44.97;;
55172;SDS011;41061;52.822;6.860;2023-04-10T01:12:40;77.03;;;46.20;;
55172;SDS011;41061;52.822;6.860;2023-04-10T01:15:26;70.43;;;44.47;;
55172;SDS011;41061;52.822;6.860;2023-04-10T01:18:03;75.90;;;45.08;;
55172;SDS011;41061;52.822;6.860;2023-04-10T01:23:05;76.20;;;44.92;;
55172;SDS011;41061;52.822;6.860;2023-04-10T01:25:48;72.68;;;43.95;;
55172;SDS011;41061;52.822;6.860;2023-04-10T01:31:12;69.95;;;43.10;;
55172;SDS011;41061;52.822;6.860;2023-04-10T01:33:53;71.28;;;43.30;;
55172;SDS011;41061;52.822;6.860;2023-04-10T01:36:24;67.03;;;43.40;;
55172;SDS011;41061;52.822;6.860;2023-04-10T01:38:53;70.57;;;43.55;;
55172;SDS011;41061;52.822;6.860;2023-04-10T01:41:21;66.88;;;42.22;;
55172;SDS011;41061;52.822;6.860;2023-04-10T01:43:49;72.00;;;45.08;;
55172;SDS011;41061;52.822;6.860;2023-04-10T01:46:18;69.30;;;42.83;;
55172;SDS011;41061;52.822;6.860;2023-04-10T01:48:45;70.43;;;43.25;;
55172;SDS011;41061;52.822;6.860;2023-04-10T01:51:12;70.18;;;42.45;;
55172;SDS011;41061;52.822;6.860;2023-04-10T01:53:40;71.25;;;42.50;;
55172;SDS011;41061;52.822;6.860;2023-04-10T01:56:08;71.93;;;42.92;;
55172;SDS011;41061;52.822;6.860;2023-04-10T01:58:35;64.55;;;40.83;;
55172;SDS011;41061;52.822;6.860;2023-04-10T02:01:01;66.47;;;41.13;;
55172;SDS011;41061;52.822;6.860;2023-04-10T02:03:27;67.47;;;42.13;;
55172;SDS011;41061;52.822;6.860;2023-04-10T02:09:11;66.22;;;40.35;;
55172;SDS011;41061;52.822;6.860;2023-04-10T02:14:06;64.05;;;40.58;;
55172;SDS011;41061;52.822;6.860;2023-04-10T02:16:35;62.35;;;38.85;;
55172;SDS011;41061;52.822;6.860;2023-04-10T02:19:03;66.88;;;41.13;;
55172;SDS011;41061;52.822;6.860;2023-04-10T02:21:31;61.33;;;39.00;;
55172;SDS011;41061;52.822;6.860;2023-04-10T02:23:57;65.47;;;41.28;;
55172;SDS011;41061;52.822;6.860;2023-04-10T02:26:24;63.78;;;39.97;;
55172;SDS011;41061;52.822;6.860;2023-04-10T02:28:49;66.50;;;39.35;;
55172;SDS011;41061;52.822;6.860;2023-04-10T02:31:15;64.90;;;39.85;;
55172;SDS011;41061;52.822;6.860;2023-04-10T02:33:41;63.67;;;38.72;;
55172;SDS011;41061;52.822;6.860;2023-04-10T02:36:07;68.05;;;41.22;;
55172;SDS011;41061;52.822;6.860;2023-04-10T02:38:33;66.85;;;41.85;;
55172;SDS011;41061;52.822;6.860;2023-04-10T02:40:59;63.92;;;40.20;;
55172;SDS011;41061;52.822;6.860;2023-04-10T02:43:25;66.65;;;41.03;;
55172;SDS011;41061;52.822;6.860;2023-04-10T02:45:50;65.97;;;40.25;;
55172;SDS011;41061;52.822;6.860;2023-04-10T02:48:16;68.82;;;40.88;;
55172;SDS011;41061;52.822;6.860;2023-04-10T02:50:42;65.13;;;39.83;;
55172;SDS011;41061;52.822;6.860;2023-04-10T02:53:12;62.10;;;39.17;;
55172;SDS011;41061;52.822;6.860;2023-04-10T02:55:38;68.90;;;41.63;;
55172;SDS011;41061;52.822;6.860;2023-04-10T02:58:04;66.93;;;40.33;;
55172;SDS011;41061;52.822;6.860;2023-04-10T03:00:29;70.05;;;43.03;;
55172;SDS011;41061;52.822;6.860;2023-04-10T03:02:55;73.90;;;44.80;;
55172;SDS011;41061;52.822;6.860;2023-04-10T03:05:21;69.03;;;42.08;;
55172;SDS011;41061;52.822;6.860;2023-04-10T03:07:46;65.28;;;41.40;;
55172;SDS011;41061;52.822;6.860;2023-04-10T03:10:12;68.10;;;42.30;;
55172;SDS011;41061;52.822;6.860;2023-04-10T03:12:38;72.97;;;43.10;;
55172;SDS011;41061;52.822;6.860;2023-04-10T03:15:04;67.35;;;43.28;;
55172;SDS011;41061;52.822;6.860;2023-04-10T03:17:30;72.90;;;43.45;;
55172;SDS011;41061;52.822;6.860;2023-04-10T03:19:55;71.88;;;43.97;;
55172;SDS011;41061;52.822;6.860;2023-04-10T03:22:21;69.60;;;43.25;;
55172;SDS011;41061;52.822;6.860;2023-04-10T03:24:47;74.35;;;44.15;;
55172;SDS011;41061;52.822;6.860;2023-04-10T03:27:13;72.95;;;44.33;;
55172;SDS011;41061;52.822;6.860;2023-04-10T03:29:38;71.57;;;44.00;;
55172;SDS011;41061;52.822;6.860;2023-04-10T03:32:04;70.38;;;43.88;;
55172;SDS011;41061;52.822;6.860;2023-04-10T03:34:30;70.57;;;43.92;;
55172;SDS011;41061;52.822;6.860;2023-04-10T03:36:56;72.70;;;44.30;;
55172;SDS011;41061;52.822;6.860;2023-04-10T03:39:21;73.95;;;44.92;;
55172;SDS011;41061;52.822;6.860;2023-04-10T03:41:48;77.10;;;44.85;;
55172;SDS011;41061;52.822;6.860;2023-04-10T03:44:14;76.07;;;45.38;;
55172;SDS011;41061;52.822;6.860;2023-04-10T03:46:40;76.90;;;48.42;;
55172;SDS011;41061;52.822;6.860;2023-04-10T03:49:06;79.25;;;47.42;;
55172;SDS011;41061;52.822;6.860;2023-04-10T03:51:31;79.35;;;48.47;;
55172;SDS011;41061;52.822;6.860;2023-04-10T03:53:57;85.53;;;48.72;;
55172;SDS011;41061;52.822;6.860;2023-04-10T03:56:23;81.55;;;49.03;;
55172;SDS011;41061;52.822;6.860;2023-04-10T03:58:48;79.07;;;51.72;;
55172;SDS011;41061;52.822;6.860;2023-04-10T04:01:14;82.78;;;48.03;;
55172;SDS011;41061;52.822;6.860;2023-04-10T04:03:40;85.65;;;51.97;;
55172;SDS011;41061;52.822;6.860;2023-04-10T04:06:20;85.72;;;51.03;;
55172;SDS011;41061;52.822;6.860;2023-04-10T04:08:46;84.38;;;51.08;;
55172;SDS011;41061;52.822;6.860;2023-04-10T04:11:12;85.20;;;51.58;;
55172;SDS011;41061;52.822;6.860;2023-04-10T04:13:37;83.95;;;49.85;;
55172;SDS011;41061;52.822;6.860;2023-04-10T04:16:03;84.50;;;51.45;;
55172;SDS011;41061;52.822;6.860;2023-04-10T04:18:29;81.50;;;50.13;;
55172;SDS011;41061;52.822;6.860;2023-04-10T04:20:55;87.85;;;52.20;;
55172;SDS011;41061;52.822;6.860;2023-04-10T04:23:20;86.43;;;51.85;;
55172;SDS011;41061;52.822;6.860;2023-04-10T04:25:46;80.28;;;49.50;;
55172;SDS011;41061;52.822;6.860;2023-04-10T04:28:13;90.00;;;52.03;;
55172;SDS011;41061;52.822;6.860;2023-04-10T04:30:40;86.57;;;51.92;;
55172;SDS011;41061;52.822;6.860;2023-04-10T04:33:05;85.07;;;51.17;;
55172;SDS011;41061;52.822;6.860;2023-04-10T04:35:31;84.20;;;50.88;;
55172;SDS011;41061;52.822;6.860;2023-04-10T04:37:57;85.03;;;52.35;;
55172;SDS011;41061;52.822;6.860;2023-04-10T04:40:22;89.88;;;52.88;;
55172;SDS011;41061;52.822;6.860;2023-04-10T04:42:48;88.13;;;52.70;;
55172;SDS011;41061;52.822;6.860;2023-04-10T04:45:13;86.68;;;51.92;;
55172;SDS011;41061;52.822;6.860;2023-04-10T04:47:40;84.03;;;51.70;;
55172;SDS011;41061;52.822;6.860;2023-04-10T04:50:05;88.15;;;54.33;;
55172;SDS011;41061;52.822;6.860;2023-04-10T04:52:32;84.10;;;52.20;;
55172;SDS011;41061;52.822;6.860;2023-04-10T04:54:59;82.72;;;52.72;;
55172;SDS011;41061;52.822;6.860;2023-04-10T04:57:25;80.22;;;51.72;;
55172;SDS011;41061;52.822;6.860;2023-04-10T04:59:51;84.70;;;52.97;;
55172;SDS011;41061;52.822;6.860;2023-04-10T05:02:16;83.93;;;53.88;;
55172;SDS011;41061;52.822;6.860;2023-04-10T05:04:43;87.28;;;52.63;;
55172;SDS011;41061;52.822;6.860;2023-04-10T05:07:08;82.35;;;52.30;;
55172;SDS011;41061;52.822;6.860;2023-04-10T05:09:35;84.57;;;52.63;;
55172;SDS011;41061;52.822;6.860;2023-04-10T05:12:00;84.68;;;54.45;;
55172;SDS011;41061;52.822;6.860;2023-04-10T05:14:27;84.45;;;53.45;;
55172;SDS011;41061;52.822;6.860;2023-04-10T05:16:53;87.55;;;53.53;;
55172;SDS011;41061;52.822;6.860;2023-04-10T05:19:19;92.35;;;52.78;;
55172;SDS011;41061;52.822;6.860;2023-04-10T05:21:45;88.78;;;53.88;;
55172;SDS011;41061;52.822;6.860;2023-04-10T05:24:10;82.53;;;50.63;;
55172;SDS011;41061;52.822;6.860;2023-04-10T05:26:36;82.85;;;51.20;;
55172;SDS011;41061;52.822;6.860;2023-04-10T05:29:02;82.43;;;49.40;;
55172;SDS011;41061;52.822;6.860;2023-04-10T05:31:28;82.70;;;51.35;;
55172;SDS011;41061;52.822;6.860;2023-04-10T05:33:54;84.95;;;51.60;;
55172;SDS011;41061;52.822;6.860;2023-04-10T05:36:20;98.93;;;51.00;;
55172;SDS011;41061;52.822;6.860;2023-04-10T05:38:45;89.78;;;53.42;;
55172;SDS011;41061;52.822;6.860;2023-04-10T05:41:11;81.28;;;49.25;;
55172;SDS011;41061;52.822;6.860;2023-04-10T05:43:37;86.07;;;52.15;;
55172;SDS011;41061;52.822;6.860;2023-04-10T05:46:02;90.05;;;54.00;;
55172;SDS011;41061;52.822;6.860;2023-04-10T05:48:28;89.30;;;53.42;;
55172;SDS011;41061;52.822;6.860;2023-04-10T05:50:54;80.97;;;49.80;;
55172;SDS011;41061;52.822;6.860;2023-04-10T05:53:19;85.82;;;51.75;;
55172;SDS011;41061;52.822;6.860;2023-04-10T05:55:48;84.55;;;51.22;;
55172;SDS011;41061;52.822;6.860;2023-04-10T05:58:15;88.43;;;49.13;;
55172;SDS011;41061;52.822;6.860;2023-04-10T06:00:41;87.05;;;52.03;;
55172;SDS011;41061;52.822;6.860;2023-04-10T06:03:06;87.43;;;51.38;;
55172;SDS011;41061;52.822;6.860;2023-04-10T06:05:32;91.95;;;52.83;;
55172;SDS011;41061;52.822;6.860;2023-04-10T06:07:58;79.70;;;48.75;;
55172;SDS011;41061;52.822;6.860;2023-04-10T06:10:27;83.32;;;50.65;;
55172;SDS011;41061;52.822;6.860;2023-04-10T06:12:55;82.57;;;50.20;;
55172;SDS011;41061;52.822;6.860;2023-04-10T06:15:21;81.22;;;50.45;;
55172;SDS011;41061;52.822;6.860;2023-04-10T06:17:46;77.40;;;49.03;;
55172;SDS011;41061;52.822;6.860;2023-04-10T06:20:12;77.82;;;46.95;;
55172;SDS011;41061;52.822;6.860;2023-04-10T06:22:38;77.85;;;47.35;;
55172;SDS011;41061;52.822;6.860;2023-04-10T06:25:03;66.03;;;38.05;;
55172;SDS011;41061;52.822;6.860;2023-04-10T06:27:29;73.90;;;46.65;;
55172;SDS011;41061;52.822;6.860;2023-04-10T06:29:55;74.93;;;45.03;;
55172;SDS011;41061;52.822;6.860;2023-04-10T06:32:21;76.85;;;47.38;;
55172;SDS011;41061;52.822;6.860;2023-04-10T06:34:47;78.35;;;45.78;;
55172;SDS011;41061;52.822;6.860;2023-04-10T06:37:12;70.45;;;44.70;;
55172;SDS011;41061;52.822;6.860;2023-04-10T06:39:38;71.65;;;44.30;;
55172;SDS011;41061;52.822;6.860;2023-04-10T06:42:03;73.05;;;43.60;;
55172;SDS011;41061;52.822;6.860;2023-04-10T06:44:29;61.80;;;37.22;;
55172;SDS011;41061;52.822;6.860;2023-04-10T06:46:55;70.97;;;42.45;;
55172;SDS011;41061;52.822;6.860;2023-04-10T06:49:21;67.20;;;42.45;;
55172;SDS011;41061;52.822;6.860;2023-04-10T06:51:47;66.32;;;41.75;;
55172;SDS011;41061;52.822;6.860;2023-04-10T06:54:13;57.85;;;35.13;;
55172;SDS011;41061;52.822;6.860;2023-04-10T06:56:38;63.97;;;40.47;;
55172;SDS011;41061;52.822;6.860;2023-04-10T06:59:04;67.47;;;41.70;;
55172;SDS011;41061;52.822;6.860;2023-04-10T07:01:30;72.70;;;41.47;;
55172;SDS011;41061;52.822;6.860;2023-04-10T07:03:56;70.45;;;41.70;;
55172;SDS011;41061;52.822;6.860;2023-04-10T07:06:21;73.20;;;42.75;;
55172;SDS011;41061;52.822;6.860;2023-04-10T07:08:47;69.28;;;40.70;;
55172;SDS011;41061;52.822;6.860;2023-04-10T07:11:13;70.20;;;41.03;;
55172;SDS011;41061;52.822;6.860;2023-04-10T07:13:39;69.30;;;42.42;;
55172;SDS011;41061;52.822;6.860;2023-04-10T07:16:05;69.63;;;41.15;;
55172;SDS011;41061;52.822;6.860;2023-04-10T07:18:35;68.30;;;40.00;;
55172;SDS011;41061;52.822;6.860;2023-04-10T07:21:08;67.15;;;39.67;;
55172;SDS011;41061;52.822;6.860;2023-04-10T07:23:35;60.13;;;35.30;;
55172;SDS011;41061;52.822;6.860;2023-04-10T07:26:01;59.45;;;35.78;;
55172;SDS011;41061;52.822;6.860;2023-04-10T07:28:27;61.60;;;36.88;;
55172;SDS011;41061;52.822;6.860;2023-04-10T07:30:52;56.15;;;34.47;;
55172;SDS011;41061;52.822;6.860;2023-04-10T07:33:18;60.80;;;36.20;;
55172;SDS011;41061;52.822;6.860;2023-04-10T07:35:44;54.42;;;32.65;;
55172;SDS011;41061;52.822;6.860;2023-04-10T07:38:10;57.42;;;35.38;;
55172;SDS011;41061;52.822;6.860;2023-04-10T07:40:37;54.85;;;33.20;;
55172;SDS011;41061;52.822;6.860;2023-04-10T07:43:03;54.85;;;33.78;;
55172;SDS011;41061;52.822;6.860;2023-04-10T07:45:28;53.38;;;32.55;;
55172;SDS011;41061;52.822;6.860;2023-04-10T07:47:54;50.28;;;31.73;;
55172;SDS011;41061;52.822;6.860;2023-04-10T07:50:19;49.10;;;28.88;;
55172;SDS011;41061;52.822;6.860;2023-04-10T07:52:45;47.60;;;29.08;;
55172;SDS011;41061;52.822;6.860;2023-04-10T07:55:12;45.03;;;28.65;;
55172;SDS011;41061;52.822;6.860;2023-04-10T07:57:38;43.78;;;28.45;;
55172;SDS011;41061;52.822;6.860;2023-04-10T08:00:04;47.17;;;27.58;;
55172;SDS011;41061;52.822;6.860;2023-04-10T08:02:31;46.53;;;29.10;;
55172;SDS011;41061;52.822;6.860;2023-04-10T08:04:56;42.58;;;28.70;;
55172;SDS011;41061;52.822;6.860;2023-04-10T08:07:22;47.55;;;29.17;;
55172;SDS011;41061;52.822;6.860;2023-04-10T08:09:48;42.55;;;26.88;;
55172;SDS011;41061;52.822;6.860;2023-04-10T08:12:13;43.47;;;25.00;;
55172;SDS011;41061;52.822;6.860;2023-04-10T08:14:40;39.85;;;26.58;;
55172;SDS011;41061;52.822;6.860;2023-04-10T08:17:05;35.90;;;23.52;;
55172;SDS011;41061;52.822;6.860;2023-04-10T08:19:38;41.70;;;25.83;;
55172;SDS011;41061;52.822;6.860;2023-04-10T08:22:05;40.40;;;25.48;;
55172;SDS011;41061;52.822;6.860;2023-04-10T08:24:30;43.50;;;25.08;;
55172;SDS011;41061;52.822;6.860;2023-04-10T08:26:56;35.95;;;23.75;;
55172;SDS011;41061;52.822;6.860;2023-04-10T08:29:22;35.80;;;22.52;;
55172;SDS011;41061;52.822;6.860;2023-04-10T08:31:47;36.13;;;23.05;;
55172;SDS011;41061;52.822;6.860;2023-04-10T08:34:13;37.35;;;23.75;;
55172;SDS011;41061;52.822;6.860;2023-04-10T08:36:39;33.88;;;22.70;;
55172;SDS011;41061;52.822;6.860;2023-04-10T08:39:05;32.92;;;22.98;;
55172;SDS011;41061;52.822;6.860;2023-04-10T08:41:30;36.45;;;23.33;;
55172;SDS011;41061;52.822;6.860;2023-04-10T08:43:56;30.95;;;19.85;;
55172;SDS011;41061;52.822;6.860;2023-04-10T08:46:22;30.85;;;20.13;;
55172;SDS011;41061;52.822;6.860;2023-04-10T08:51:40;36.45;;;22.67;;
55172;SDS011;41061;52.822;6.860;2023-04-10T08:54:12;36.47;;;23.15;;
55172;SDS011;41061;52.822;6.860;2023-04-10T08:56:49;29.43;;;20.23;;
55172;SDS011;41061;52.822;6.860;2023-04-10T08:59:17;27.48;;;17.48;;
55172;SDS011;41061;52.822;6.860;2023-04-10T09:01:43;30.52;;;21.20;;
55172;SDS011;41061;52.822;6.860;2023-04-10T09:04:10;36.70;;;24.13;;
55172;SDS011;41061;52.822;6.860;2023-04-10T09:06:36;36.17;;;22.75;;
55172;SDS011;41061;52.822;6.860;2023-04-10T09:09:01;33.42;;;19.48;;
55172;SDS011;41061;52.822;6.860;2023-04-10T09:14:19;28.00;;;19.08;;
55172;SDS011;41061;52.822;6.860;2023-04-10T09:16:52;27.75;;;19.08;;
55172;SDS011;41061;52.822;6.860;2023-04-10T09:19:30;28.77;;;19.52;;
55172;SDS011;41061;52.822;6.860;2023-04-10T09:21:57;29.55;;;19.77;;
55172;SDS011;41061;52.822;6.860;2023-04-10T09:24:23;26.10;;;17.52;;
55172;SDS011;41061;52.822;6.860;2023-04-10T09:26:49;23.63;;;15.65;;
55172;SDS011;41061;52.822;6.860;2023-04-10T09:29:15;25.17;;;16.83;;
55172;SDS011;41061;52.822;6.860;2023-04-10T09:31:41;25.50;;;16.38;;
55172;SDS011;41061;52.822;6.860;2023-04-10T09:34:11;25.83;;;17.95;;
55172;SDS011;41061;52.822;6.860;2023-04-10T09:36:43;25.48;;;16.80;;
55172;SDS011;41061;52.822;6.860;2023-04-10T09:39:18;25.75;;;16.98;;
55172;SDS011;41061;52.822;6.860;2023-04-10T09:41:53;24.00;;;17.30;;
55172;SDS011;41061;52.822;6.860;2023-04-10T09:44:32;22.27;;;14.95;;
55172;SDS011;41061;52.822;6.860;2023-04-10T09:49:44;23.90;;;16.02;;
55172;SDS011;41061;52.822;6.860;2023-04-10T09:52:19;22.50;;;14.98;;
55172;SDS011;41061;52.822;6.860;2023-04-10T09:54:49;19.83;;;13.77;;
55172;SDS011;41061;52.822;6.860;2023-04-10T09:57:20;19.05;;;13.20;;
55172;SDS011;41061;52.822;6.860;2023-04-10T09:59:51;17.25;;;11.43;;
55172;SDS011;41061;52.822;6.860;2023-04-10T10:02:19;14.30;;;9.55;;
55172;SDS011;41061;52.822;6.860;2023-04-10T10:04:45;15.77;;;11.48;;
55172;SDS011;41061;52.822;6.860;2023-04-10T10:07:15;11.50;;;7.70;;
55172;SDS011;41061;52.822;6.860;2023-04-10T10:09:43;17.10;;;11.30;;
55172;SDS011;41061;52.822;6.860;2023-04-10T10:12:10;14.98;;;10.48;;
55172;SDS011;41061;52.822;6.860;2023-04-10T10:14:41;14.82;;;10.00;;
55172;SDS011;41061;52.822;6.860;2023-04-10T10:17:20;15.43;;;10.13;;
55172;SDS011;41061;52.822;6.860;2023-04-10T10:20:11;12.18;;;8.43;;
55172;SDS011;41061;52.822;6.860;2023-04-10T10:22:36;13.13;;;9.43;;
55172;SDS011;41061;52.822;6.860;2023-04-10T10:25:05;13.40;;;9.40;;
55172;SDS011;41061;52.822;6.860;2023-04-10T10:27:33;12.90;;;9.70;;
55172;SDS011;41061;52.822;6.860;2023-04-10T10:30:02;12.75;;;9.27;;
55172;SDS011;41061;52.822;6.860;2023-04-10T10:32:28;11.82;;;9.55;;
55172;SDS011;41061;52.822;6.860;2023-04-10T10:34:55;12.18;;;8.68;;
55172;SDS011;41061;52.822;6.860;2023-04-10T10:37:22;11.85;;;8.63;;
55172;SDS011;41061;52.822;6.860;2023-04-10T10:40:09;11.50;;;8.65;;
55172;SDS011;41061;52.822;6.860;2023-04-10T10:45:41;10.93;;;7.80;;
55172;SDS011;41061;52.822;6.860;2023-04-10T10:48:11;11.48;;;8.15;;
55172;SDS011;41061;52.822;6.860;2023-04-10T10:50:50;9.48;;;7.88;;
55172;SDS011;41061;52.822;6.860;2023-04-10T10:53:39;9.35;;;7.00;;
55172;SDS011;41061;52.822;6.860;2023-04-10T10:56:40;10.35;;;6.85;;
55172;SDS011;41061;52.822;6.860;2023-04-10T10:59:00;8.35;;;7.13;;
55172;SDS011;41061;52.822;6.860;2023-04-10T11:01:26;9.90;;;7.00;;
55172;SDS011;41061;52.822;6.860;2023-04-10T11:03:52;8.35;;;6.35;;
55172;SDS011;41061;52.822;6.860;2023-04-10T11:06:19;8.57;;;6.60;;
55172;SDS011;41061;52.822;6.860;2023-04-10T11:08:49;8.38;;;6.97;;
55172;SDS011;41061;52.822;6.860;2023-04-10T11:11:20;13.45;;;6.57;;
55172;SDS011;41061;52.822;6.860;2023-04-10T11:16:23;7.75;;;5.55;;
55172;SDS011;41061;52.822;6.860;2023-04-10T11:19:06;8.85;;;5.90;;
55172;SDS011;41061;52.822;6.860;2023-04-10T11:21:33;13.38;;;5.95;;
55172;SDS011;41061;52.822;6.860;2023-04-10T11:31:29;7.65;;;5.50;;
55172;SDS011;41061;52.822;6.860;2023-04-10T11:36:28;6.85;;;5.40;;
55172;SDS011;41061;52.822;6.860;2023-04-10T11:39:02;8.82;;;5.72;;
55172;SDS011;41061;52.822;6.860;2023-04-10T11:41:36;6.95;;;5.43;;
55172;SDS011;41061;52.822;6.860;2023-04-10T11:44:06;7.70;;;4.65;;
55172;SDS011;41061;52.822;6.860;2023-04-10T11:46:37;5.35;;;3.78;;
55172;SDS011;41061;52.822;6.860;2023-04-10T11:49:04;4.78;;;3.60;;
55172;SDS011;41061;52.822;6.860;2023-04-10T11:51:31;4.60;;;3.60;;
55172;SDS011;41061;52.822;6.860;2023-04-10T11:54:04;5.63;;;4.00;;
55172;SDS011;41061;52.822;6.860;2023-04-10T11:56:54;6.68;;;4.05;;
55172;SDS011;41061;52.822;6.860;2023-04-10T11:59:28;4.47;;;3.25;;
55172;SDS011;41061;52.822;6.860;2023-04-10T12:04:33;4.72;;;3.60;;
55172;SDS011;41061;52.822;6.860;2023-04-10T12:06:59;7.82;;;3.45;;
55172;SDS011;41061;52.822;6.860;2023-04-10T12:09:25;4.93;;;3.58;;
55172;SDS011;41061;52.822;6.860;2023-04-10T12:16:59;6.80;;;3.63;;
55172;SDS011;41061;52.822;6.860;2023-04-10T12:19:26;11.93;;;3.80;;
55172;SDS011;41061;52.822;6.860;2023-04-10T12:21:52;4.93;;;3.38;;
55172;SDS011;41061;52.822;6.860;2023-04-10T12:27:05;5.18;;;3.60;;
55172;SDS011;41061;52.822;6.860;2023-04-10T12:29:31;7.45;;;3.63;;
55172;SDS011;41061;52.822;6.860;2023-04-10T12:31:56;8.63;;;3.53;;
55172;SDS011;41061;52.822;6.860;2023-04-10T12:34:22;5.43;;;3.22;;
55172;SDS011;41061;52.822;6.860;2023-04-10T12:36:51;6.18;;;3.88;;
55172;SDS011;41061;52.822;6.860;2023-04-10T12:39:21;5.20;;;3.53;;
55172;SDS011;41061;52.822;6.860;2023-04-10T12:41:48;6.55;;;3.42;;
55172;SDS011;41061;52.822;6.860;2023-04-10T12:44:16;3.78;;;2.85;;
55172;SDS011;41061;52.822;6.860;2023-04-10T12:46:43;6.25;;;3.30;;
55172;SDS011;41061;52.822;6.860;2023-04-10T12:49:13;5.13;;;3.55;;
55172;SDS011;41061;52.822;6.860;2023-04-10T12:51:41;6.65;;;4.05;;
55172;SDS011;41061;52.822;6.860;2023-04-10T12:54:32;6.55;;;3.45;;
55172;SDS011;41061;52.822;6.860;2023-04-10T12:56:59;5.32;;;3.20;;
55172;SDS011;41061;52.822;6.860;2023-04-10T12:59:26;6.03;;;3.30;;
55172;SDS011;41061;52.822;6.860;2023-04-10T13:01:52;4.30;;;2.85;;
55172;SDS011;41061;52.822;6.860;2023-04-10T13:04:18;4.80;;;3.55;;
55172;SDS011;41061;52.822;6.860;2023-04-10T13:06:44;5.38;;;3.58;;
55172;SDS011;41061;52.822;6.860;2023-04-10T13:09:11;5.13;;;3.20;;
55172;SDS011;41061;52.822;6.860;2023-04-10T13:11:38;5.75;;;3.40;;
55172;SDS011;41061;52.822;6.860;2023-04-10T13:14:04;3.47;;;2.67;;
55172;SDS011;41061;52.822;6.860;2023-04-10T13:16:30;5.03;;;2.95;;
55172;SDS011;41061;52.822;6.860;2023-04-10T13:18:56;6.68;;;2.67;;
55172;SDS011;41061;52.822;6.860;2023-04-10T13:21:22;10.35;;;2.97;;
55172;SDS011;41061;52.822;6.860;2023-04-10T13:23:53;5.78;;;2.78;;
55172;SDS011;41061;52.822;6.860;2023-04-10T13:26:20;3.88;;;2.90;;
55172;SDS011;41061;52.822;6.860;2023-04-10T13:28:46;6.43;;;3.00;;
55172;SDS011;41061;52.822;6.860;2023-04-10T13:31:11;5.80;;;3.10;;
55172;SDS011;41061;52.822;6.860;2023-04-10T13:33:40;6.28;;;3.60;;
55172;SDS011;41061;52.822;6.860;2023-04-10T13:36:11;6.00;;;3.10;;
55172;SDS011;41061;52.822;6.860;2023-04-10T13:38:36;3.35;;;2.83;;
55172;SDS011;41061;52.822;6.860;2023-04-10T13:41:02;4.05;;;2.78;;
55172;SDS011;41061;52.822;6.860;2023-04-10T13:43:28;5.03;;;3.20;;
55172;SDS011;41061;52.822;6.860;2023-04-10T13:45:54;6.25;;;3.22;;
55172;SDS011;41061;52.822;6.860;2023-04-10T13:48:19;8.05;;;2.97;;
55172;SDS011;41061;52.822;6.860;2023-04-10T13:50:45;4.55;;;3.35;;
55172;SDS011;41061;52.822;6.860;2023-04-10T13:53:11;6.65;;;3.40;;
55172;SDS011;41061;52.822;6.860;2023-04-10T13:55:37;9.32;;;3.63;;
55172;SDS011;41061;52.822;6.860;2023-04-10T13:58:07;8.52;;;3.17;;
55172;SDS011;41061;52.822;6.860;2023-04-10T14:00:36;4.70;;;3.28;;
55172;SDS011;41061;52.822;6.860;2023-04-10T14:03:01;5.18;;;2.72;;
55172;SDS011;41061;52.822;6.860;2023-04-10T14:05:27;4.32;;;3.42;;
55172;SDS011;41061;52.822;6.860;2023-04-10T14:07:53;5.53;;;3.00;;
55172;SDS011;41061;52.822;6.860;2023-04-10T14:10:21;6.50;;;3.50;;
55172;SDS011;41061;52.822;6.860;2023-04-10T14:12:47;7.07;;;3.10;;
55172;SDS011;41061;52.822;6.860;2023-04-10T14:15:13;3.60;;;2.78;;
55172;SDS011;41061;52.822;6.860;2023-04-10T14:17:39;3.88;;;3.13;;
55172;SDS011;41061;52.822;6.860;2023-04-10T14:20:05;6.97;;;3.33;;
55172;SDS011;41061;52.822;6.860;2023-04-10T14:22:31;5.32;;;3.08;;
55172;SDS011;41061;52.822;6.860;2023-04-10T14:24:57;4.88;;;3.40;;
55172;SDS011;41061;52.822;6.860;2023-04-10T14:27:22;5.57;;;3.17;;
55172;SDS011;41061;52.822;6.860;2023-04-10T14:29:48;4.32;;;3.13;;
55172;SDS011;41061;52.822;6.860;2023-04-10T14:32:14;3.42;;;2.85;;
55172;SDS011;41061;52.822;6.860;2023-04-10T14:34:39;7.22;;;2.75;;
55172;SDS011;41061;52.822;6.860;2023-04-10T14:37:05;4.97;;;3.35;;
55172;SDS011;41061;52.822;6.860;2023-04-10T14:39:31;3.10;;;2.67;;
55172;SDS011;41061;52.822;6.860;2023-04-10T14:41:57;4.05;;;3.00;;
55172;SDS011;41061;52.822;6.860;2023-04-10T14:44:23;6.65;;;3.00;;
55172;SDS011;41061;52.822;6.860;2023-04-10T14:46:49;5.82;;;3.05;;
55172;SDS011;41061;52.822;6.860;2023-04-10T14:49:15;3.58;;;2.30;;
55172;SDS011;41061;52.822;6.860;2023-04-10T14:51:43;5.35;;;2.80;;
55172;SDS011;41061;52.822;6.860;2023-04-10T14:54:09;4.28;;;2.40;;
55172;SDS011;41061;52.822;6.860;2023-04-10T14:56:35;4.05;;;2.80;;
55172;SDS011;41061;52.822;6.860;2023-04-10T14:59:01;4.30;;;2.85;;
55172;SDS011;41061;52.822;6.860;2023-04-10T15:01:27;3.33;;;2.65;;
55172;SDS011;41061;52.822;6.860;2023-04-10T15:03:53;5.68;;;3.05;;
55172;SDS011;41061;52.822;6.860;2023-04-10T15:06:18;3.38;;;2.83;;
55172;SDS011;41061;52.822;6.860;2023-04-10T15:08:44;3.75;;;2.70;;
55172;SDS011;41061;52.822;6.860;2023-04-10T15:11:10;5.80;;;2.88;;
55172;SDS011;41061;52.822;6.860;2023-04-10T15:13:36;5.28;;;2.90;;
55172;SDS011;41061;52.822;6.860;2023-04-10T15:16:03;4.00;;;2.58;;